Time;durP1;ratioP1;P1;durP2;ratioP2;P2;SDS_P1;SDS_P2;PMS_P1;PMS_P2;Temp;Humidity;BMP_temperature;BMP_pressure;BME280_temperature;BME280_humidity;BME280_pressure;Samples;Min_cycle;Max_cycle;Signal;HPM_P1;HPM_P2
2023/12/23 00:01:59;;;;;;;0.67;0.40;;;;;;;9.11;100.00;95486.31;5038261;28;20239;-71
2023/12/23 00:04:26;;;;;;;0.30;0.30;;;;;;;9.11;100.00;95494.19;5038551;28;20206;-68
2023/12/23 00:06:52;;;;;;;0.20;0.20;;;;;;;9.08;100.00;95491.94;5038832;28;20206;-68
2023/12/23 00:09:19;;;;;;;0.63;0.37;;;;;;;9.22;100.00;95496.34;5038915;28;21031;-68
2023/12/23 00:11:45;;;;;;;0.37;0.37;;;;;;;9.22;100.00;95504.22;5038083;28;20232;-68
2023/12/23 00:14:12;;;;;;;0.20;0.20;;;;;;;9.08;100.00;95517.44;5036553;28;20233;-70
2023/12/23 00:16:39;;;;;;;0.30;0.30;;;;;;;9.39;100.00;95495.91;5039052;28;20198;-71
2023/12/23 00:19:06;;;;;;;1.33;0.40;;;;;;;9.20;100.00;95511.47;5038160;28;20583;-68
2023/12/23 00:21:33;;;;;;;0.20;0.20;;;;;;;9.15;100.00;95501.53;5037488;28;21274;-71
2023/12/23 00:23:59;;;;;;;0.40;0.40;;;;;;;9.19;100.00;95526.44;5038208;28;20698;-69
2023/12/23 00:26:26;;;;;;;0.43;0.43;;;;;;;9.21;100.00;95521.00;5038770;28;20198;-69
2023/12/23 00:28:52;;;;;;;0.30;0.30;;;;;;;9.18;100.00;95513.50;5037547;28;20709;-70
2023/12/23 00:31:19;;;;;;;0.30;0.30;;;;;;;9.24;100.00;95533.75;5038227;28;20259;-70
2023/12/23 00:33:49;;;;;;;1.07;0.40;;;;;;;9.33;100.00;95522.13;5038575;28;20291;-71
2023/12/23 00:36:16;;;;;;;0.30;0.30;;;;;;;9.20;100.00;95520.19;5037958;28;20232;-70
2023/12/23 00:38:42;;;;;;;0.40;0.40;;;;;;;9.28;100.00;95537.66;5038442;28;20212;-70
2023/12/23 00:41:09;;;;;;;0.37;0.37;;;;;;;9.36;100.00;95537.56;5037971;28;20219;-71
2023/12/23 00:43:35;;;;;;;0.50;0.50;;;;;;;9.22;100.00;95543.66;5037685;28;20225;-68
2023/12/23 00:46:02;;;;;;;0.40;0.40;;;;;;;9.23;100.00;95538.22;5037279;28;20223;-71
2023/12/23 00:48:28;;;;;;;0.83;0.43;;;;;;;9.23;100.00;95543.47;5039496;28;20231;-72
2023/12/23 00:50:56;;;;;;;0.30;0.30;;;;;;;9.35;100.00;95520.94;5037506;28;20959;-69
2023/12/23 00:53:25;;;;;;;0.40;0.40;;;;;;;9.27;100.00;95538.66;5037887;28;20228;-68
2023/12/23 00:55:52;;;;;;;0.27;0.27;;;;;;;9.26;100.00;95547.53;5038034;28;20216;-68
2023/12/23 00:58:18;;;;;;;0.30;0.30;;;;;;;9.25;100.00;95540.66;5038086;28;20202;-69
2023/12/23 01:00:45;;;;;;;0.40;0.40;;;;;;;9.25;100.00;95540.66;5037164;28;20778;-68
2023/12/23 01:03:12;;;;;;;0.30;0.30;;;;;;;9.18;100.00;95553.72;5037523;28;20304;-68
2023/12/23 01:05:38;;;;;;;0.47;0.47;;;;;;;9.19;100.00;95567.69;5038201;28;20286;-68
2023/12/23 01:08:07;;;;;;;0.30;0.30;;;;;;;9.07;100.00;95568.34;5037761;28;20753;-70
2023/12/23 01:10:33;;;;;;;0.30;0.30;;;;;;;8.80;100.00;95590.03;5037162;28;20685;-69
2023/12/23 01:13:00;;;;;;;0.30;0.30;;;;;;;8.81;100.00;95589.03;5036998;28;20233;-71
2023/12/23 01:15:26;;;;;;;0.30;0.30;;;;;;;8.63;100.00;95586.75;5038022;28;21019;-70
2023/12/23 01:17:53;;;;;;;0.27;0.27;;;;;;;8.59;100.00;95587.28;5037984;28;20450;-69
2023/12/23 01:20:19;;;;;;;0.40;0.40;;;;;;;8.63;100.00;95583.31;5038279;28;20198;-71
2023/12/23 01:22:46;;;;;;;0.30;0.30;;;;;;;8.55;100.00;95589.47;5036820;28;20796;-71
2023/12/23 01:25:14;;;;;;;0.57;0.57;;;;;;;8.74;100.00;95598.63;5037389;28;20220;-67
2023/12/23 01:27:40;;;;;;;0.30;0.30;;;;;;;8.64;100.00;95598.06;5036911;28;20648;-69
2023/12/23 01:30:08;;;;;;;0.63;0.50;;;;;;;8.69;100.00;95596.56;5037459;28;20229;-67
2023/12/23 01:32:34;;;;;;;0.30;0.30;;;;;;;8.64;100.00;95616.44;5037080;28;20221;-69
2023/12/23 01:35:01;;;;;;;0.50;0.50;;;;;;;8.69;100.00;95625.44;5037287;28;20678;-70
2023/12/23 01:37:27;;;;;;;0.40;0.40;;;;;;;8.69;100.00;95632.50;5037767;28;20220;-67
2023/12/23 01:39:54;;;;;;;0.40;0.40;;;;;;;8.69;100.00;95640.38;5037146;28;20207;-69
2023/12/23 01:42:22;;;;;;;0.40;0.40;;;;;;;8.79;100.00;95644.34;5037028;28;20243;-65
2023/12/23 01:44:48;;;;;;;0.93;0.40;;;;;;;8.59;100.00;95655.56;5037471;28;20205;-70
2023/12/23 01:47:15;;;;;;;1.23;0.40;;;;;;;8.69;100.00;95656.13;5036932;28;20643;-70
2023/12/23 01:49:43;;;;;;;0.27;0.27;;;;;;;8.53;100.00;95659.72;5037573;28;20229;-69
2023/12/23 01:52:10;;;;;;;0.40;0.40;;;;;;;8.63;100.00;95648.94;5037040;28;20336;-69
2023/12/23 01:54:37;;;;;;;0.47;0.47;;;;;;;8.44;100.00;95657.38;5036864;28;20208;-69
2023/12/23 01:57:03;;;;;;;0.30;0.30;;;;;;;8.61;100.00;95670.16;5035821;28;20205;-69
2023/12/23 01:59:31;;;;;;;0.43;0.43;;;;;;;8.65;100.00;95691.63;5037487;28;20207;-68
2023/12/23 02:02:00;;;;;;;0.30;0.30;;;;;;;8.58;100.00;95683.66;5036213;28;20237;-69
2023/12/23 02:04:27;;;;;;;0.30;0.30;;;;;;;8.59;100.00;95689.69;5036582;28;20205;-67
2023/12/23 02:06:53;;;;;;;0.20;0.20;;;;;;;8.49;100.00;95694.41;5036189;28;20201;-66
2023/12/23 02:09:20;;;;;;;0.30;0.30;;;;;;;8.45;100.00;95689.69;5037125;28;20867;-68
2023/12/23 02:11:55;;;;;;;0.30;0.30;;;;;;;8.73;100.00;95697.63;5035907;28;20229;-68
2023/12/23 02:14:29;;;;;;;0.40;0.40;;;;;;;8.74;100.00;95691.34;5036412;28;20324;-66
2023/12/23 02:16:58;;;;;;;0.87;0.47;;;;;;;8.70;100.00;95697.97;5036659;28;20209;-68
2023/12/23 02:19:24;;;;;;;0.30;0.30;;;;;;;8.55;100.00;95699.78;5036521;28;20201;-67
2023/12/23 02:21:52;;;;;;;6.90;0.50;;;;;;;8.70;100.00;95691.91;5036033;28;20727;-66
2023/12/23 02:24:19;;;;;;;0.70;0.63;;;;;;;8.59;100.00;95695.78;5037063;28;20205;-70
2023/12/23 02:26:51;;;;;;;1.37;0.60;;;;;;;8.72;100.00;95709.13;5036684;28;21000;-69
2023/12/23 02:29:19;;;;;;;1.20;0.60;;;;;;;8.56;100.00;95711.88;5036773;28;20232;-68
2023/12/23 02:31:46;;;;;;;0.30;0.30;;;;;;;8.52;100.00;95705.34;5036452;28;20235;-68
2023/12/23 02:34:13;;;;;;;1.33;0.53;;;;;;;8.48;100.00;95699.81;5035243;28;20654;-69
2023/12/23 02:36:39;;;;;;;4.37;0.40;;;;;;;8.47;100.00;95713.97;5035947;28;20201;-68
2023/12/23 02:39:08;;;;;;;0.50;0.43;;;;;;;8.56;100.00;95706.63;5036373;28;20207;-68
2023/12/23 02:41:34;;;;;;;0.80;0.30;;;;;;;8.34;100.00;95711.91;5036128;28;20201;-68
2023/12/23 02:44:01;;;;;;;0.30;0.30;;;;;;;8.43;100.00;95712.69;5035480;28;20699;-68
2023/12/23 02:46:27;;;;;;;0.37;0.37;;;;;;;8.44;100.00;95709.03;5035922;28;20203;-68
2023/12/23 02:48:53;;;;;;;0.30;0.30;;;;;;;8.27;100.00;95710.16;5035909;28;20232;-68
2023/12/23 02:51:20;;;;;;;0.40;0.40;;;;;;;8.42;100.00;95711.84;5035052;28;20205;-68
2023/12/23 02:53:47;;;;;;;0.30;0.30;;;;;;;8.40;100.00;95724.34;5036553;28;20213;-68
2023/12/23 02:56:15;;;;;;;0.30;0.30;;;;;;;8.61;100.00;95737.63;5035688;28;20227;-68
2023/12/23 02:58:41;;;;;;;0.40;0.40;;;;;;;8.37;100.00;95737.00;5036517;28;20212;-68
2023/12/23 03:01:08;;;;;;;0.30;0.30;;;;;;;8.44;100.00;95745.78;5034912;28;20235;-68
2023/12/23 03:03:34;;;;;;;1.53;0.30;;;;;;;8.42;100.00;95760.91;5036476;28;20726;-68
2023/12/23 03:06:01;;;;;;;0.50;0.50;;;;;;;8.47;100.00;95751.53;5036194;28;20572;-68
2023/12/23 03:08:27;;;;;;;2.30;0.63;;;;;;;8.25;100.00;95764.63;5036701;28;20320;-69
2023/12/23 03:10:54;;;;;;;0.20;0.20;;;;;;;8.38;100.00;95755.19;5042669;28;20602;-68
2023/12/23 03:13:22;;;;;;;0.30;0.30;;;;;;;8.36;100.00;95757.16;5042140;28;20228;-68
2023/12/23 03:15:48;;;;;;;1.13;0.53;;;;;;;8.31;100.00;95750.81;5041952;28;21101;-69
2023/12/23 03:18:15;;;;;;;0.50;0.50;;;;;;;8.32;100.00;95744.59;5042484;28;20209;-68
2023/12/23 03:20:41;;;;;;;0.70;0.40;;;;;;;8.41;100.00;95740.91;5041585;28;20303;-68
2023/12/23 03:23:08;;;;;;;0.30;0.30;;;;;;;8.28;100.00;95730.19;5041502;28;20224;-68
2023/12/23 03:25:34;;;;;;;0.93;0.60;;;;;;;8.23;100.00;95732.50;5042323;28;20575;-69
2023/12/23 03:28:01;;;;;;;3.40;0.53;;;;;;;8.32;100.00;95741.97;5043013;28;20215;-68
2023/12/23 03:30:29;;;;;;;1.50;0.60;;;;;;;8.44;100.00;95737.91;5041997;28;20224;-67
2023/12/23 03:32:55;;;;;;;2.77;0.40;;;;;;;8.36;100.00;95738.00;5042558;28;20224;-68
2023/12/23 03:35:22;;;;;;;0.47;0.47;;;;;;;8.38;100.00;95743.91;5042160;28;20205;-69
2023/12/23 03:37:48;;;;;;;0.80;0.50;;;;;;;8.31;100.00;95753.44;5042427;28;20212;-68
2023/12/23 03:40:15;;;;;;;1.67;1.00;;;;;;;8.23;100.00;95740.38;5041841;28;20197;-68
2023/12/23 03:42:42;;;;;;;0.30;0.30;;;;;;;8.12;100.00;95743.38;5042021;28;20229;-68
2023/12/23 03:45:09;;;;;;;1.30;0.50;;;;;;;8.20;100.00;95743.38;5041564;28;20296;-68
2023/12/23 03:47:36;;;;;;;0.30;0.30;;;;;;;8.30;100.00;95757.88;5042636;28;20220;-68
2023/12/23 03:50:02;;;;;;;0.30;0.30;;;;;;;8.08;100.00;95757.81;5042619;28;20262;-68
2023/12/23 03:52:29;;;;;;;0.37;0.37;;;;;;;8.12;100.00;95759.94;5041770;28;20229;-68
2023/12/23 03:54:55;;;;;;;0.40;0.30;;;;;;;7.94;100.00;95753.31;5041878;28;20212;-68
2023/12/23 03:57:22;;;;;;;0.40;0.40;;;;;;;7.92;100.00;95753.50;5042236;28;20212;-68
2023/12/23 03:59:48;;;;;;;0.20;0.20;;;;;;;7.90;100.00;95757.28;5042771;28;20209;-67
2023/12/23 04:02:15;;;;;;;0.47;0.47;;;;;;;7.94;100.00;95755.94;5041025;28;21054;-69
2023/12/23 04:04:43;;;;;;;0.33;0.33;;;;;;;8.02;100.00;95748.84;5042717;28;20213;-68
2023/12/23 04:07:09;;;;;;;0.30;0.30;;;;;;;7.85;100.00;95753.53;5041880;28;20667;-68
2023/12/23 04:09:36;;;;;;;0.30;0.30;;;;;;;7.85;100.00;95746.47;5042616;28;20216;-68
2023/12/23 04:12:02;;;;;;;0.23;0.23;;;;;;;7.76;100.00;95758.00;5041313;28;20244;-68
2023/12/23 04:14:29;;;;;;;0.30;0.30;;;;;;;7.84;100.00;95759.78;5042285;28;20550;-69
2023/12/23 04:16:55;;;;;;;0.40;0.40;;;;;;;7.91;100.00;95762.34;5042517;28;20247;-69
2023/12/23 04:19:22;;;;;;;0.40;0.40;;;;;;;7.90;100.00;95765.16;5041535;28;20286;-69
2023/12/23 04:21:49;;;;;;;0.57;0.40;;;;;;;7.97;100.00;95747.75;5038527;28;20752;-68
2023/12/23 04:24:19;;;;;;;0.30;0.30;;;;;;;7.92;100.00;95763.19;5039334;28;20205;-69
2023/12/23 04:26:45;;;;;;;0.57;0.57;;;;;;;7.93;100.00;95756.94;5038682;28;20209;-69
2023/12/23 04:29:12;;;;;;;0.20;0.20;;;;;;;7.91;100.00;95751.03;5038002;28;20209;-68
2023/12/23 04:31:38;;;;;;;0.40;0.40;;;;;;;7.97;100.00;95753.00;5039896;28;20224;-69
2023/12/23 04:34:05;;;;;;;0.30;0.30;;;;;;;7.81;100.00;95760.94;5038953;28;20201;-69
2023/12/23 04:36:32;;;;;;;0.30;0.30;;;;;;;7.90;100.00;95754.66;5037926;28;20216;-69
2023/12/23 04:39:03;;;;;;;0.40;0.40;;;;;;;8.05;100.00;95752.94;5039227;28;20665;-68
2023/12/23 04:41:30;;;;;;;0.37;0.37;;;;;;;7.81;100.00;95755.69;5038287;28;20267;-68
2023/12/23 04:43:56;;;;;;;0.40;0.40;;;;;;;7.88;100.00;95749.59;5038353;28;20201;-68
2023/12/23 04:46:23;;;;;;;0.40;0.40;;;;;;;7.82;100.00;95746.84;5037996;28;20876;-68
2023/12/23 04:48:49;;;;;;;0.30;0.30;;;;;;;7.64;100.00;95748.88;5038939;28;20201;-68
2023/12/23 04:51:16;;;;;;;0.33;0.33;;;;;;;7.68;100.00;95757.25;5037330;28;20221;-67
2023/12/23 04:53:43;;;;;;;3.90;0.57;;;;;;;7.78;100.00;95758.66;5038632;28;20458;-68
2023/12/23 04:56:11;;;;;;;0.20;0.20;;;;;;;7.85;100.00;95751.72;5037923;28;20205;-68
2023/12/23 04:58:37;;;;;;;0.30;0.30;;;;;;;7.67;100.00;95753.78;5038583;28;20211;-69
2023/12/23 05:01:05;;;;;;;0.40;0.40;;;;;;;7.72;100.00;95756.72;5037879;28;20205;-68
2023/12/23 05:03:34;;;;;;;0.90;0.30;;;;;;;7.71;100.00;95755.06;5037704;28;20232;-68
2023/12/23 05:06:00;;;;;;;0.30;0.30;;;;;;;7.75;100.00;95764.25;5038067;28;20198;-69
2023/12/23 05:08:27;;;;;;;1.87;1.00;;;;;;;7.64;100.00;95767.25;5037649;28;20209;-67
2023/12/23 05:10:53;;;;;;;0.30;0.30;;;;;;;7.55;100.00;95754.34;5037732;28;20235;-68
2023/12/23 05:13:23;;;;;;;0.47;0.43;;;;;;;7.70;100.00;95769.19;5037167;28;20221;-67
2023/12/23 05:15:49;;;;;;;4.00;0.93;;;;;;;7.78;100.00;95755.19;5037888;28;20201;-68
2023/12/23 05:18:16;;;;;;;0.90;0.77;;;;;;;7.74;100.00;95760.00;5037441;28;20287;-69
2023/12/23 05:20:42;;;;;;;0.70;0.30;;;;;;;7.65;100.00;95760.19;5038153;28;20201;-68
2023/12/23 05:23:09;;;;;;;0.50;0.50;;;;;;;7.67;100.00;95764.28;5037741;28;20225;-68
2023/12/23 05:25:36;;;;;;;0.30;0.30;;;;;;;7.68;100.00;95760.66;5037857;28;20201;-68
2023/12/23 05:28:02;;;;;;;0.30;0.30;;;;;;;7.66;100.00;95756.59;5038129;28;20209;-68
2023/12/23 05:30:30;;;;;;;0.20;0.20;;;;;;;7.78;100.00;95753.41;5036628;28;20228;-68
2023/12/23 05:32:57;;;;;;;0.30;0.30;;;;;;;7.65;100.00;95763.63;5036392;28;20229;-68
2023/12/23 05:35:23;;;;;;;1.47;0.90;;;;;;;7.62;100.00;95755.28;5037281;28;20209;-68
2023/12/23 05:37:50;;;;;;;0.30;0.30;;;;;;;7.58;100.00;95751.38;5037757;28;20209;-69
2023/12/23 05:40:16;;;;;;;0.80;0.70;;;;;;;7.60;100.00;95749.38;5036786;28;20207;-67
2023/12/23 05:42:43;;;;;;;0.40;0.40;;;;;;;7.75;100.00;95758.19;5038384;28;20221;-68
2023/12/23 05:45:10;;;;;;;0.47;0.47;;;;;;;7.61;100.00;95759.72;5036782;28;20592;-68
2023/12/23 05:47:38;;;;;;;0.40;0.40;;;;;;;7.62;100.00;95758.72;5037129;28;20211;-69
2023/12/23 05:50:04;;;;;;;0.30;0.30;;;;;;;7.50;100.00;95744.38;5037245;28;20266;-68
2023/12/23 05:52:31;;;;;;;0.40;0.40;;;;;;;7.57;100.00;95747.91;5036539;28;20225;-69
2023/12/23 05:54:57;;;;;;;0.40;0.40;;;;;;;7.58;100.00;95735.66;5036709;28;20311;-68
2023/12/23 05:57:24;;;;;;;1.37;0.50;;;;;;;7.49;100.00;95727.00;5036777;28;20753;-68
2023/12/23 05:59:50;;;;;;;0.23;0.23;;;;;;;7.70;100.00;95723.78;5037247;28;20816;-69
2023/12/23 06:02:17;;;;;;;0.50;0.50;;;;;;;7.47;100.00;95726.38;5035447;28;20243;-68
2023/12/23 06:04:45;;;;;;;0.40;0.40;;;;;;;7.63;100.00;95728.91;5037247;28;20592;-68
2023/12/23 06:07:12;;;;;;;0.37;0.37;;;;;;;7.56;100.00;95732.38;5036815;28;20209;-68
2023/12/23 06:09:39;;;;;;;0.50;0.50;;;;;;;7.43;100.00;95722.44;5036894;28;20204;-68
2023/12/23 06:12:06;;;;;;;0.40;0.40;;;;;;;7.53;100.00;95725.66;5035787;28;20225;-68
2023/12/23 06:14:32;;;;;;;0.30;0.30;;;;;;;7.48;100.00;95724.53;5036482;28;20885;-68
2023/12/23 06:16:59;;;;;;;0.30;0.30;;;;;;;7.53;100.00;95709.94;5036739;28;20205;-68
2023/12/23 06:19:25;;;;;;;0.40;0.40;;;;;;;7.52;100.00;95704.88;5035680;28;20228;-68
2023/12/23 06:21:53;;;;;;;0.30;0.30;;;;;;;7.51;100.00;95713.72;5036569;28;20231;-68
2023/12/23 06:24:19;;;;;;;17.50;0.53;;;;;;;7.46;100.00;95701.13;5036448;28;20212;-69
2023/12/23 06:26:46;;;;;;;0.40;0.40;;;;;;;7.53;100.00;95717.78;5036718;28;20208;-68
2023/12/23 06:29:13;;;;;;;0.50;0.40;;;;;;;7.52;100.00;95721.44;5036274;28;20209;-68
2023/12/23 06:31:39;;;;;;;0.50;0.50;;;;;;;7.47;100.00;95723.75;5036343;28;20244;-68
2023/12/23 06:34:06;;;;;;;0.50;0.50;;;;;;;7.54;100.00;95716.81;5036828;28;20216;-68
2023/12/23 06:36:32;;;;;;;0.30;0.30;;;;;;;7.44;100.00;95707.53;5035696;28;21618;-69
2023/12/23 06:39:00;;;;;;;0.30;0.30;;;;;;;7.74;100.00;95697.06;5036759;28;20213;-68
2023/12/23 06:41:26;;;;;;;0.27;0.27;;;;;;;7.72;100.00;95692.97;5035106;28;20679;-68
2023/12/23 06:43:53;;;;;;;0.30;0.30;;;;;;;7.64;100.00;95716.63;5035812;28;20213;-68
2023/12/23 06:46:20;;;;;;;1.50;0.80;;;;;;;7.57;100.00;95692.88;5035976;28;20212;-68
2023/12/23 06:48:46;;;;;;;0.50;0.50;;;;;;;7.54;100.00;95706.31;5036732;28;20208;-68
2023/12/23 06:51:12;;;;;;;0.50;0.50;;;;;;;7.56;100.00;95704.38;5035428;28;20578;-69
2023/12/23 06:53:39;;;;;;;0.70;0.70;;;;;;;7.74;100.00;95699.69;5036957;28;20224;-69
2023/12/23 06:56:08;;;;;;;0.30;0.30;;;;;;;7.83;100.00;95709.13;5030219;28;20204;-67
2023/12/23 06:58:34;;;;;;;0.40;0.40;;;;;;;7.67;100.00;95705.78;5032247;28;20201;-69
2023/12/23 07:01:01;;;;;;;0.97;0.70;;;;;;;7.73;100.00;95699.84;5034960;28;20205;-70
2023/12/23 07:03:27;;;;;;;0.43;0.43;;;;;;;7.63;100.00;95709.75;5035169;28;20221;-67
2023/12/23 07:05:54;;;;;;;0.50;0.50;;;;;;;7.60;100.00;95703.03;5034576;28;20205;-69
2023/12/23 07:08:20;;;;;;;0.50;0.50;;;;;;;7.62;100.00;95687.94;5035302;28;20670;-65
2023/12/23 07:10:47;;;;;;;1.27;0.67;;;;;;;7.64;100.00;95693.03;5036419;28;20251;-69
2023/12/23 07:13:15;;;;;;;0.47;0.47;;;;;;;7.87;100.00;95692.06;5036426;28;20228;-69
2023/12/23 07:15:41;;;;;;;0.30;0.30;;;;;;;7.55;100.00;95692.25;5036251;28;20580;-70
2023/12/23 07:18:09;;;;;;;0.60;0.60;;;;;;;7.66;100.00;95693.66;5036172;28;20193;-68
2023/12/23 07:20:36;;;;;;;0.60;0.60;;;;;;;7.71;100.00;95691.34;5035606;28;20579;-69
2023/12/23 07:23:03;;;;;;;0.50;0.43;;;;;;;7.62;100.00;95695.78;5036196;28;20599;-70
2023/12/23 07:25:29;;;;;;;0.60;0.60;;;;;;;7.68;100.00;95702.97;5034964;28;20245;-70
2023/12/23 07:27:55;;;;;;;0.40;0.40;;;;;;;7.68;100.00;95686.44;5035871;28;20581;-69
2023/12/23 07:30:23;;;;;;;0.40;0.40;;;;;;;7.82;100.00;95678.63;5035082;28;20225;-68
2023/12/23 07:32:50;;;;;;;0.73;0.50;;;;;;;7.63;100.00;95694.81;5036079;28;20229;-70
2023/12/23 07:35:16;;;;;;;0.30;0.30;;;;;;;7.66;100.00;95680.53;5035754;28;20205;-68
2023/12/23 07:37:43;;;;;;;0.30;0.30;;;;;;;7.68;100.00;95679.38;5035777;28;20212;-68
2023/12/23 07:40:10;;;;;;;0.40;0.40;;;;;;;7.70;100.00;95680.03;5036506;28;20205;-67
2023/12/23 07:42:37;;;;;;;0.40;0.40;;;;;;;7.66;100.00;95677.91;5035167;28;20232;-69
2023/12/23 07:45:04;;;;;;;0.23;0.23;;;;;;;7.69;100.00;95688.88;5033375;28;20212;-73
2023/12/23 07:47:32;;;;;;;0.30;0.30;;;;;;;7.83;100.00;95684.69;5034098;28;20205;-68
2023/12/23 07:49:59;;;;;;;0.40;0.40;;;;;;;7.74;100.00;95698.84;5031561;28;20643;-73
2023/12/23 07:52:25;;;;;;;0.30;0.30;;;;;;;7.77;100.00;95690.66;5032272;28;20221;-69
2023/12/23 07:54:52;;;;;;;0.30;0.30;;;;;;;7.83;100.00;95682.91;5034086;28;20212;-73
2023/12/23 07:57:18;;;;;;;0.30;0.30;;;;;;;7.78;100.00;95687.84;5037570;28;20201;-69
2023/12/23 07:59:46;;;;;;;0.40;0.40;;;;;;;7.91;100.00;95701.22;5037810;28;20205;-68
2023/12/23 08:02:13;;;;;;;0.50;0.50;;;;;;;7.86;100.00;95706.16;5038480;28;21332;-66
2023/12/23 08:04:42;;;;;;;0.50;0.50;;;;;;;7.98;100.00;95707.38;5039334;28;20205;-69
2023/12/23 08:07:08;;;;;;;0.30;0.30;;;;;;;7.94;100.00;95714.81;5040296;28;20568;-69
2023/12/23 08:09:35;;;;;;;0.37;0.37;;;;;;;7.92;100.00;95721.22;5039166;28;20201;-68
2023/12/23 08:12:02;;;;;;;0.40;0.40;;;;;;;7.88;100.00;95723.34;5038378;28;20233;-65
2023/12/23 08:14:29;;;;;;;0.97;0.60;;;;;;;7.99;100.00;95730.00;5037915;28;20223;-70
2023/12/23 08:16:55;;;;;;;0.30;0.30;;;;;;;7.93;100.00;95734.16;5037717;28;20201;-68
2023/12/23 08:19:22;;;;;;;0.30;0.30;;;;;;;7.95;100.00;95732.16;5037248;28;20259;-66
2023/12/23 08:21:49;;;;;;;0.33;0.33;;;;;;;8.09;100.00;95720.91;5037294;28;20231;-70
2023/12/23 08:24:16;;;;;;;0.30;0.30;;;;;;;7.90;100.00;95720.56;5037393;28;20202;-69
2023/12/23 08:26:42;;;;;;;0.40;0.40;;;;;;;8.03;100.00;95734.75;5037236;28;20205;-70
2023/12/23 08:29:09;;;;;;;0.30;0.30;;;;;;;7.96;100.00;95748.72;5038236;28;21364;-66
2023/12/23 08:31:43;;;;;;;0.30;0.30;;;;;;;8.18;100.00;95726.97;5037243;28;20574;-66
2023/12/23 08:34:09;;;;;;;0.47;0.30;;;;;;;7.99;100.00;95714.25;5039043;28;20209;-66
2023/12/23 08:36:36;;;;;;;0.20;0.20;;;;;;;7.93;100.00;95722.84;5038083;28;21106;-69
2023/12/23 08:39:04;;;;;;;0.30;0.30;;;;;;;8.02;100.00;95711.31;5037678;28;20201;-68
2023/12/23 08:41:30;;;;;;;0.40;0.40;;;;;;;8.00;100.00;95734.28;5035714;28;20198;-69
2023/12/23 08:43:57;;;;;;;0.67;0.60;;;;;;;7.84;100.00;95739.63;5036917;28;20592;-69
2023/12/23 08:46:23;;;;;;;0.37;0.37;;;;;;;8.04;100.00;95719.81;5037831;28;20238;-69
2023/12/23 08:48:50;;;;;;;0.40;0.40;;;;;;;7.90;100.00;95728.41;5039068;28;20204;-67
2023/12/23 08:51:16;;;;;;;0.40;0.40;;;;;;;7.94;100.00;95732.31;5038215;28;20236;-69
2023/12/23 08:53:43;;;;;;;0.57;0.57;;;;;;;8.04;100.00;95740.78;5038433;28;20229;-69
2023/12/23 08:56:11;;;;;;;0.30;0.30;;;;;;;8.33;100.00;95723.41;5038183;28;20702;-67
2023/12/23 08:58:37;;;;;;;0.30;0.30;;;;;;;7.97;100.00;95732.00;5037900;28;20324;-66
2023/12/23 09:01:04;;;;;;;0.40;0.40;;;;;;;7.98;100.00;95750.19;5037411;28;20213;-66
2023/12/23 09:03:31;;;;;;;0.30;0.30;;;;;;;8.07;100.00;95725.53;5036713;28;20229;-69
2023/12/23 09:05:58;;;;;;;0.40;0.40;;;;;;;8.01;100.00;95747.22;5038063;28;21081;-66
2023/12/23 09:08:25;;;;;;;0.30;0.30;;;;;;;8.06;100.00;95739.63;5037448;28;20218;-67
2023/12/23 09:10:51;;;;;;;0.73;0.40;;;;;;;8.00;100.00;95729.81;5038059;28;20235;-68
2023/12/23 09:13:19;;;;;;;0.30;0.30;;;;;;;8.09;100.00;95723.53;5037647;28;20227;-65
2023/12/23 09:15:46;;;;;;;0.40;0.40;;;;;;;8.00;100.00;95773.63;5036886;28;20207;-67
2023/12/23 09:18:12;;;;;;;0.30;0.30;;;;;;;8.04;100.00;95741.63;5038478;28;20689;-68
2023/12/23 09:20:39;;;;;;;0.47;0.47;;;;;;;8.05;100.00;95747.69;5037105;28;20591;-70
2023/12/23 09:23:05;;;;;;;0.50;0.40;;;;;;;7.89;100.00;95742.53;5038898;28;20217;-68
2023/12/23 09:25:31;;;;;;;0.53;0.40;;;;;;;7.97;100.00;95730.19;5036404;28;20205;-69
2023/12/23 09:27:58;;;;;;;2.70;0.73;;;;;;;7.97;100.00;95724.94;5037745;28;20201;-67
2023/12/23 09:30:26;;;;;;;1.70;0.40;;;;;;;8.07;100.00;95728.16;5037739;28;20205;-68
2023/12/23 09:32:52;;;;;;;0.60;0.60;;;;;;;7.90;100.00;95725.78;5036813;28;21245;-69
2023/12/23 09:35:19;;;;;;;0.87;0.53;;;;;;;7.74;100.00;95769.66;5037166;28;20205;-68
2023/12/23 09:37:46;;;;;;;0.37;0.37;;;;;;;8.01;100.00;95749.03;5037203;28;20201;-69
2023/12/23 09:40:13;;;;;;;0.33;0.33;;;;;;;8.09;100.00;95749.78;5037548;28;20209;-68
2023/12/23 09:42:40;;;;;;;3.50;0.50;;;;;;;7.95;100.00;95733.97;5035351;28;20998;-69
2023/12/23 09:45:07;;;;;;;0.40;0.40;;;;;;;8.13;100.00;95739.75;5037526;28;20201;-68
2023/12/23 09:47:35;;;;;;;0.30;0.30;;;;;;;8.21;100.00;95742.34;5037091;28;20760;-68
2023/12/23 09:50:02;;;;;;;0.40;0.40;;;;;;;7.92;100.00;95757.94;5037531;28;20655;-68
2023/12/23 09:52:30;;;;;;;0.33;0.33;;;;;;;8.18;100.00;95756.63;5036787;28;20225;-69
2023/12/23 09:54:58;;;;;;;0.40;0.40;;;;;;;8.19;100.00;95747.78;5037538;28;20205;-68
2023/12/23 09:57:26;;;;;;;0.20;0.20;;;;;;;8.12;100.00;95749.44;5036723;28;20215;-68
2023/12/23 09:59:53;;;;;;;0.30;0.30;;;;;;;8.01;100.00;95754.28;5036197;28;20246;-68
2023/12/23 10:02:19;;;;;;;0.57;0.40;;;;;;;8.18;100.00;95742.72;5037159;28;20340;-68
2023/12/23 10:04:47;;;;;;;0.50;0.50;;;;;;;8.16;100.00;95749.94;5036371;28;20221;-68
2023/12/23 10:07:15;;;;;;;0.50;0.50;;;;;;;8.27;100.00;95744.28;5035955;28;20207;-68
2023/12/23 10:09:41;;;;;;;0.70;0.60;;;;;;;8.06;100.00;95729.13;5036423;28;20235;-68
2023/12/23 10:12:08;;;;;;;1.00;0.60;;;;;;;8.23;100.00;95756.13;5035860;28;20228;-68
2023/12/23 10:14:35;;;;;;;0.57;0.57;;;;;;;8.18;100.00;95733.00;5036644;28;20205;-69
2023/12/23 10:17:02;;;;;;;0.63;0.60;;;;;;;8.09;100.00;95754.22;5036731;28;20208;-68
2023/12/23 10:19:28;;;;;;;0.60;0.60;;;;;;;8.20;100.00;95736.28;5036361;28;20201;-69
2023/12/23 10:21:56;;;;;;;0.70;0.47;;;;;;;8.20;100.00;95730.25;5035868;28;20225;-68
2023/12/23 10:24:22;;;;;;;1.37;0.80;;;;;;;7.99;100.00;95730.84;5036722;28;20208;-68
2023/12/23 10:26:49;;;;;;;0.43;0.43;;;;;;;8.01;100.00;95726.22;5036081;28;20546;-68
2023/12/23 10:29:17;;;;;;;0.50;0.50;;;;;;;8.01;100.00;95735.91;5037295;28;20212;-69
2023/12/23 10:31:50;;;;;;;0.63;0.30;;;;;;;8.21;100.00;95737.09;5035252;28;20792;-68
2023/12/23 10:34:21;;;;;;;1.73;0.90;;;;;;;8.23;100.00;95729.88;5037126;28;20224;-68
2023/12/23 10:36:49;;;;;;;0.50;0.50;;;;;;;8.01;100.00;95764.78;5036151;28;20194;-68
2023/12/23 10:39:25;;;;;;;0.40;0.40;;;;;;;8.28;100.00;95751.19;5037377;28;20736;-68
2023/12/23 10:41:57;;;;;;;0.50;0.50;;;;;;;8.23;100.00;95750.88;5035265;28;20223;-72
2023/12/23 10:44:25;;;;;;;0.60;0.60;;;;;;;8.18;100.00;95750.59;5034044;28;20201;-70
2023/12/23 10:46:51;;;;;;;0.40;0.40;;;;;;;8.02;100.00;95745.41;5035947;28;20201;-68
2023/12/23 10:49:19;;;;;;;0.50;0.50;;;;;;;8.00;100.00;95763.94;5036260;28;20203;-71
2023/12/23 10:51:47;;;;;;;0.50;0.50;;;;;;;7.97;100.00;95766.09;5036035;28;20271;-70
2023/12/23 10:54:14;;;;;;;0.50;0.50;;;;;;;7.92;100.00;95769.22;5035220;28;20201;-68
2023/12/23 10:56:42;;;;;;;0.57;0.50;;;;;;;7.95;100.00;95768.06;5035160;28;20207;-74
2023/12/23 10:59:09;;;;;;;0.40;0.40;;;;;;;7.88;100.00;95762.69;5035926;28;20215;-69
2023/12/23 11:01:37;;;;;;;0.40;0.40;;;;;;;7.67;100.00;95758.22;5035959;28;20201;-75
2023/12/23 11:04:04;;;;;;;1.13;0.60;;;;;;;7.73;100.00;95765.41;5034019;28;20197;-68
2023/12/23 11:06:38;;;;;;;0.50;0.50;;;;;;;7.77;100.00;95749.16;5033878;28;20578;-69
2023/12/23 11:09:06;;;;;;;1.37;0.90;;;;;;;7.76;100.00;95759.81;5034291;28;20224;-73
2023/12/23 11:11:33;;;;;;;0.60;0.60;;;;;;;7.79;100.00;95760.31;5032977;28;20283;-70
2023/12/23 11:14:04;;;;;;;1.00;0.90;;;;;;;7.93;100.00;95756.94;5033801;28;20201;-70
2023/12/23 11:16:31;;;;;;;0.57;0.57;;;;;;;7.45;100.00;95744.06;5033276;28;20205;-73
2023/12/23 11:18:57;;;;;;;1.40;0.93;;;;;;;7.93;100.00;95738.59;5035016;28;20208;-71
2023/12/23 11:21:24;;;;;;;0.40;0.40;;;;;;;7.71;100.00;95759.50;5033182;28;20868;-70
2023/12/23 11:23:51;;;;;;;1.30;0.83;;;;;;;7.74;100.00;95753.91;5034722;28;20718;-71
2023/12/23 11:26:41;;;;;;;0.33;0.33;;;;;;;7.93;100.00;95733.34;5033857;28;20197;-68
2023/12/23 11:29:10;;;;;;;0.87;0.67;;;;;;;7.81;100.00;95750.44;5034846;28;20683;-68
2023/12/23 11:31:37;;;;;;;1.37;0.90;;;;;;;7.57;100.00;95771.53;5038084;28;20808;-70
2023/12/23 11:34:13;;;;;;;0.83;0.67;;;;;;;7.81;100.00;95776.66;5040270;28;20201;-71